createdAt,value
2022-12-12T00:01:20.545Z,66.12
2022-12-12T00:03:47.099Z,66.45
2022-12-12T00:06:13.624Z,66.16
2022-12-12T00:08:40.039Z,66.26
2022-12-12T00:11:06.768Z,66.65
2022-12-12T00:13:33.694Z,66.95
2022-12-12T00:16:00.288Z,67.08
2022-12-12T00:18:26.997Z,66.92
2022-12-12T00:20:55.564Z,66.63
2022-12-12T00:23:23.190Z,67.01
2022-12-12T00:26:05.514Z,67.16
2022-12-12T00:28:32.464Z,66.96
2022-12-12T00:30:59.068Z,67.30
2022-12-12T00:33:25.536Z,66.96
2022-12-12T00:35:54.049Z,67.22
2022-12-12T00:38:22.572Z,66.99
2022-12-12T00:40:49.429Z,67.71
2022-12-12T00:43:15.870Z,66.88
2022-12-12T00:45:42.583Z,66.64
2022-12-12T00:48:09.510Z,66.88
2022-12-12T00:50:36.296Z,67.93
2022-12-12T00:53:02.896Z,66.82
2022-12-12T00:55:29.332Z,69.84
2022-12-12T00:57:55.760Z,70.67
2022-12-12T01:00:22.744Z,68.54
2022-12-12T01:02:49.243Z,67.71
2022-12-12T01:05:16.317Z,67.95
2022-12-12T01:07:42.917Z,67.69
2022-12-12T01:10:10.145Z,67.29
2022-12-12T01:12:36.870Z,67.18
2022-12-12T01:15:05.249Z,68.42
2022-12-12T01:17:37.789Z,68.65
2022-12-12T01:20:15.726Z,70.27
2022-12-12T01:22:42.148Z,68.60
2022-12-12T01:25:10.343Z,68.13
2022-12-12T01:27:37.338Z,67.52
2022-12-12T01:30:05.299Z,67.18
2022-12-12T01:32:31.834Z,67.28
2022-12-12T01:34:58.645Z,67.32
2022-12-12T01:37:25.255Z,69.93
2022-12-12T01:39:51.688Z,70.59
2022-12-12T01:42:19.469Z,70.39
2022-12-12T01:44:50.957Z,68.59
2022-12-12T01:47:20.908Z,67.79
2022-12-12T01:50:05.696Z,68.24
2022-12-12T01:52:44.129Z,68.07
2022-12-12T01:55:17.348Z,68.42
2022-12-12T01:57:47.300Z,68.15
2022-12-12T02:00:14.826Z,68.67
2022-12-12T02:02:44.281Z,71.33
2022-12-12T02:05:24.867Z,72.00
2022-12-12T02:07:52.231Z,69.98
2022-12-12T02:10:18.902Z,70.91
2022-12-12T02:12:46.143Z,69.84
2022-12-12T02:15:13.541Z,68.41
2022-12-12T02:18:12.986Z,67.81
2022-12-12T02:20:39.478Z,69.62
2022-12-12T02:23:14.782Z,68.38
2022-12-12T02:26:02.632Z,68.77
2022-12-12T02:29:04.305Z,70.29
2022-12-12T02:31:53.903Z,71.53
2022-12-12T02:34:26.379Z,69.63
2022-12-12T02:37:22.091Z,68.69
2022-12-12T02:40:07.128Z,69.92
2022-12-12T02:42:53.219Z,70.84
2022-12-12T02:45:37.642Z,73.42
2022-12-12T02:48:14.763Z,70.79
2022-12-12T02:50:42.910Z,71.61
2022-12-12T02:53:09.427Z,71.03
2022-12-12T02:55:36.716Z,72.23
2022-12-12T02:58:05.394Z,71.54
2022-12-12T03:00:40.737Z,71.76
2022-12-12T03:03:34.772Z,71.30
2022-12-12T03:06:25.810Z,72.87
2022-12-12T03:09:12.793Z,72.13
2022-12-12T03:12:02.667Z,72.33
2022-12-12T03:14:53.101Z,70.23
2022-12-12T03:17:56.951Z,70.65
2022-12-12T03:20:47.702Z,69.57
2022-12-12T03:23:17.737Z,69.42
2022-12-12T03:25:58.248Z,68.79
2022-12-12T03:28:31.182Z,68.78
2022-12-12T03:31:00.585Z,69.99
2022-12-12T03:33:39.743Z,69.44
2022-12-12T03:36:20.622Z,69.63
2022-12-12T03:38:57.355Z,69.12
2022-12-12T03:41:30.980Z,68.76
2022-12-12T03:44:41.640Z,69.03
2022-12-12T03:47:14.017Z,68.14
2022-12-12T03:49:46.856Z,68.54
2022-12-12T03:52:19.665Z,68.92
2022-12-12T03:54:51.007Z,69.25
2022-12-12T03:57:26.810Z,69.61
2022-12-12T04:00:07.562Z,69.85
2022-12-12T04:02:55.443Z,70.25
2022-12-12T04:05:37.314Z,71.19
2022-12-12T04:08:12.832Z,70.86
2022-12-12T04:11:06.564Z,69.76
2022-12-12T04:13:49.264Z,70.79
2022-12-12T04:16:20.495Z,69.16
2022-12-12T04:18:56.977Z,68.83
2022-12-12T04:21:59.195Z,68.79
2022-12-12T04:24:49.020Z,69.42
2022-12-12T04:27:27.391Z,69.33
2022-12-12T04:30:07.452Z,70.34
2022-12-12T04:32:39.718Z,70.41
2022-12-12T04:35:13.544Z,69.79
2022-12-12T04:37:45.084Z,68.75
2022-12-12T04:40:18.064Z,68.30
2022-12-12T04:42:50.971Z,69.57
2022-12-12T04:45:21.695Z,70.62
2022-12-12T04:47:52.139Z,70.36
2022-12-12T04:50:21.982Z,71.78
2022-12-12T04:52:51.696Z,70.23
2022-12-12T04:55:24.429Z,71.81
2022-12-12T04:57:54.683Z,70.68
2022-12-12T05:00:23.227Z,69.75
2022-12-12T05:02:53.196Z,70.09
2022-12-12T05:05:27.467Z,69.01
2022-12-12T05:08:03.477Z,70.05
2022-12-12T05:10:30.243Z,70.81
2022-12-12T05:12:59.177Z,70.50
2022-12-12T05:15:27.466Z,69.36
2022-12-12T05:18:07.567Z,70.10
2022-12-12T05:20:34.025Z,68.82
2022-12-12T05:23:00.525Z,69.32
2022-12-12T05:25:27.079Z,69.64
2022-12-12T05:27:53.530Z,69.15
2022-12-12T05:30:20.147Z,69.43
2022-12-12T05:32:46.601Z,68.90
2022-12-12T05:35:13.506Z,68.56
2022-12-12T05:37:40.375Z,69.56
2022-12-12T05:40:08.818Z,69.76
2022-12-12T05:42:35.257Z,69.81
2022-12-12T05:45:02.012Z,69.26
2022-12-12T05:47:28.466Z,69.79
2022-12-12T05:49:54.881Z,69.74
2022-12-12T05:52:21.342Z,72.05
2022-12-12T05:54:47.799Z,72.38
2022-12-12T05:57:14.454Z,70.30
2022-12-12T05:59:40.891Z,72.62
2022-12-12T06:02:07.400Z,71.77
2022-12-12T06:04:34.097Z,70.63
2022-12-12T06:07:01.077Z,71.98
2022-12-12T06:09:27.825Z,72.06
2022-12-12T06:11:55.211Z,69.55
2022-12-12T06:14:21.753Z,72.14
2022-12-12T06:16:48.244Z,73.80
2022-12-12T06:19:14.861Z,72.37
2022-12-12T06:21:41.357Z,72.21
2022-12-12T06:24:08.039Z,72.46
2022-12-12T06:26:34.593Z,73.32
2022-12-12T06:29:07.161Z,72.81
2022-12-12T06:31:34.034Z,72.87
2022-12-12T06:34:00.591Z,73.63
2022-12-12T06:36:27.278Z,73.48
2022-12-12T06:38:55.857Z,74.73
2022-12-12T06:41:24.180Z,71.62
2022-12-12T06:43:51.075Z,70.92
2022-12-12T06:46:23.263Z,72.84
2022-12-12T06:48:50.469Z,75.99
2022-12-12T06:51:20.292Z,74.57
2022-12-12T06:53:47.233Z,71.96
2022-12-12T06:56:17.089Z,71.07
2022-12-12T06:58:44.256Z,70.02
2022-12-12T07:01:20.582Z,72.73
2022-12-12T07:03:49.414Z,71.98
2022-12-12T07:06:17.486Z,70.27
2022-12-12T07:08:44.197Z,71.23
2022-12-12T07:11:12.906Z,69.87
2022-12-12T07:13:39.811Z,71.06
2022-12-12T07:16:06.907Z,70.85
2022-12-12T07:18:33.596Z,70.54
2022-12-12T07:21:00.029Z,70.93
2022-12-12T07:23:32.624Z,71.50
2022-12-12T07:25:59.450Z,72.05
2022-12-12T07:28:30.147Z,69.67
2022-12-12T07:30:56.658Z,70.64
2022-12-12T07:33:23.203Z,72.76
2022-12-12T07:35:49.610Z,70.43
2022-12-12T07:38:16.006Z,71.94
2022-12-12T07:40:42.430Z,72.10
2022-12-12T07:43:08.889Z,71.79
2022-12-12T07:45:35.299Z,71.95
2022-12-12T07:48:01.836Z,71.62
2022-12-12T07:50:28.338Z,71.01
2022-12-12T07:52:54.913Z,69.80
2022-12-12T07:55:21.330Z,69.95
2022-12-12T07:57:48.952Z,70.80
2022-12-12T08:00:16.103Z,70.73
2022-12-12T08:02:42.552Z,71.56
2022-12-12T08:05:09.341Z,73.26
2022-12-12T08:07:35.955Z,73.22
2022-12-12T08:10:02.373Z,73.29
2022-12-12T08:12:39.566Z,74.15
2022-12-12T08:15:06.441Z,74.20
2022-12-12T08:17:32.877Z,72.55
2022-12-12T08:19:59.343Z,72.48
2022-12-12T08:22:25.812Z,75.11
2022-12-12T08:24:52.236Z,72.75
2022-12-12T08:27:18.657Z,74.17
2022-12-12T08:29:45.253Z,75.72
2022-12-12T08:32:11.964Z,74.69
2022-12-12T08:34:44.111Z,74.06
2022-12-12T08:37:10.573Z,75.43
2022-12-12T08:39:38.066Z,76.93
2022-12-12T08:42:04.540Z,74.26
2022-12-12T08:44:33.286Z,72.59
2022-12-12T08:46:59.846Z,72.33
2022-12-12T08:49:26.466Z,72.45
2022-12-12T08:51:52.937Z,72.48
2022-12-12T08:54:19.626Z,71.60
2022-12-12T08:56:46.180Z,73.15
2022-12-12T08:59:13.347Z,71.38
2022-12-12T09:01:40.984Z,71.66
2022-12-12T09:04:07.802Z,70.94
2022-12-12T09:06:34.326Z,72.29
2022-12-12T09:09:01.112Z,71.05
2022-12-12T09:11:28.540Z,71.42
2022-12-12T09:13:54.998Z,72.52
2022-12-12T09:16:23.301Z,70.39
2022-12-12T09:18:49.826Z,68.70
2022-12-12T09:21:17.323Z,68.50
2022-12-12T09:23:44.124Z,72.61
2022-12-12T09:26:11.485Z,69.64
2022-12-12T09:28:38.599Z,68.75
2022-12-12T09:31:11.215Z,68.70
2022-12-12T09:33:38.611Z,67.75
2022-12-12T09:36:06.935Z,69.15
2022-12-12T09:38:34.159Z,68.63
2022-12-12T09:41:09.726Z,66.87
2022-12-12T09:43:51.482Z,68.86
2022-12-12T09:46:30.083Z,67.90
2022-12-12T09:49:25.181Z,67.76
2022-12-12T09:51:53.001Z,67.53
2022-12-12T09:54:25.504Z,68.37
2022-12-12T09:56:54.862Z,67.08
2022-12-12T09:59:42.784Z,67.67
2022-12-12T10:02:40.132Z,67.30
2022-12-12T10:05:28.735Z,66.99
2022-12-12T10:08:01.425Z,67.43
2022-12-12T10:10:33.755Z,67.20
2022-12-12T10:13:03.025Z,68.09
2022-12-12T10:15:31.534Z,67.33
2022-12-12T10:18:03.414Z,66.80
2022-12-12T10:20:32.201Z,66.88
2022-12-12T10:23:22.619Z,68.07
2022-12-12T10:26:01.738Z,70.76
2022-12-12T10:28:30.818Z,69.50
2022-12-12T10:31:18.401Z,69.55
2022-12-12T10:34:12.554Z,69.04
2022-12-12T10:36:51.053Z,70.64
2022-12-12T10:39:49.795Z,68.86
2022-12-12T10:42:36.053Z,67.31
2022-12-12T10:45:08.382Z,69.06
2022-12-12T10:47:35.244Z,67.76
2022-12-12T10:50:17.429Z,66.56
2022-12-12T10:52:43.828Z,68.53
2022-12-12T10:55:53.623Z,71.01
2022-12-12T10:58:24.943Z,69.05
2022-12-12T11:00:51.995Z,68.57
2022-12-12T11:03:26.852Z,68.34
2022-12-12T11:05:55.315Z,69.61
2022-12-12T11:08:26.196Z,69.52
2022-12-12T11:11:23.359Z,69.95
2022-12-12T11:14:02.357Z,69.00
2022-12-12T11:16:44.284Z,69.75
2022-12-12T11:19:23.364Z,68.98
2022-12-12T11:21:51.659Z,70.92
2022-12-12T11:24:21.319Z,69.72
2022-12-12T11:27:20.318Z,70.30
2022-12-12T11:29:49.979Z,69.82
2022-12-12T11:32:27.122Z,70.33
2022-12-12T11:34:58.170Z,71.33
2022-12-12T11:37:29.073Z,70.95
2022-12-12T11:39:57.286Z,69.53
2022-12-12T11:42:31.985Z,69.28
2022-12-12T11:45:19.739Z,68.50
2022-12-12T11:47:47.820Z,68.76
2022-12-12T11:50:27.432Z,66.36
2022-12-12T11:52:56.170Z,67.29
2022-12-12T11:55:54.496Z,66.10
2022-12-12T11:58:24.353Z,67.40
2022-12-12T12:01:02.241Z,68.87
2022-12-12T12:03:37.664Z,67.37
2022-12-12T12:06:19.403Z,67.99
2022-12-12T12:09:23.664Z,67.49
2022-12-12T12:12:14.643Z,69.75
2022-12-12T12:14:43.664Z,70.62
2022-12-12T12:17:31.398Z,66.48
2022-12-12T12:20:31.945Z,66.03
2022-12-12T12:23:06.210Z,66.72
2022-12-12T12:25:37.393Z,67.00
2022-12-12T12:28:03.779Z,68.79
2022-12-12T12:30:51.539Z,67.32
2022-12-12T12:33:31.570Z,67.15
2022-12-12T12:36:40.719Z,64.77
2022-12-12T12:39:13.021Z,66.98
2022-12-12T12:41:42.516Z,65.49
2022-12-12T12:44:24.688Z,64.78
2022-12-12T12:46:55.856Z,67.08
2022-12-12T12:49:31.465Z,66.24
2022-12-12T12:52:06.148Z,66.72
2022-12-12T12:54:38.793Z,65.43
2022-12-12T12:57:21.680Z,65.51
2022-12-12T12:59:53.251Z,67.04
2022-12-12T13:02:48.016Z,65.36
2022-12-12T13:05:20.470Z,64.68
2022-12-12T13:08:32.358Z,67.28
2022-12-12T13:11:06.664Z,65.67
2022-12-12T13:13:39.383Z,63.42
2022-12-12T13:16:11.644Z,64.07
2022-12-12T13:18:47.575Z,63.53
2022-12-12T13:21:35.596Z,66.00
2022-12-12T13:24:28.523Z,65.42
2022-12-12T13:27:09.800Z,63.97
2022-12-12T13:29:59.440Z,66.28
2022-12-12T13:33:00.048Z,63.46
2022-12-12T13:35:35.363Z,62.61
2022-12-12T13:38:03.247Z,62.92
2022-12-12T13:40:39.326Z,61.94
2022-12-12T13:43:25.705Z,64.80
2022-12-12T13:45:53.988Z,62.83
2022-12-12T13:48:29.312Z,62.54
2022-12-12T13:51:30.985Z,62.52
2022-12-12T13:54:12.083Z,63.34
2022-12-12T13:56:57.752Z,61.74
2022-12-12T13:59:27.046Z,60.85
2022-12-12T14:02:03.796Z,62.92
2022-12-12T14:04:43.498Z,61.70
2022-12-12T14:07:12.886Z,61.94
2022-12-12T14:09:49.146Z,62.01
2022-12-12T14:12:32.014Z,60.55
2022-12-12T14:15:01.990Z,61.40
2022-12-12T14:17:35.504Z,60.97
2022-12-12T14:20:07.340Z,60.49
2022-12-12T14:22:36.761Z,60.23
2022-12-12T14:25:12.192Z,60.32
2022-12-12T14:27:50.527Z,61.77
2022-12-12T14:30:18.027Z,62.30
2022-12-12T14:32:56.416Z,61.17
2022-12-12T14:35:29.057Z,60.43
2022-12-12T14:38:13.923Z,60.37
2022-12-12T14:40:46.051Z,61.53
2022-12-12T14:43:22.099Z,61.00
2022-12-12T14:45:49.174Z,61.26
2022-12-12T14:48:21.633Z,61.25
2022-12-12T14:51:09.109Z,60.91
2022-12-12T14:53:38.654Z,61.11
2022-12-12T14:56:22.550Z,61.49
2022-12-12T14:58:54.904Z,61.72
2022-12-12T15:01:34.270Z,61.62
2022-12-12T15:04:05.631Z,61.03
2022-12-12T15:06:37.707Z,60.60
2022-12-12T15:09:35.321Z,61.38
2022-12-12T15:12:10.791Z,60.76
2022-12-12T15:14:40.020Z,61.27
2022-12-12T15:17:15.820Z,61.61
2022-12-12T15:19:44.666Z,61.23
2022-12-12T15:22:32.765Z,61.36
2022-12-12T15:25:02.828Z,61.68
2022-12-12T15:27:47.047Z,62.29
2022-12-12T15:30:23.646Z,61.58
2022-12-12T15:32:50.587Z,61.64
2022-12-12T15:35:20.614Z,62.36
2022-12-12T15:38:02.690Z,62.08
2022-12-12T15:40:34.013Z,62.42
2022-12-12T15:43:03.550Z,63.77
2022-12-12T15:45:37.851Z,63.38
2022-12-12T15:48:06.426Z,64.22
2022-12-12T15:50:41.592Z,64.81
2022-12-12T15:53:20.142Z,63.18
2022-12-12T15:55:56.785Z,62.48
2022-12-12T15:58:29.698Z,63.20
2022-12-12T16:01:20.760Z,63.25
2022-12-12T16:04:00.774Z,62.99
2022-12-12T16:06:36.859Z,62.62
2022-12-12T16:09:22.830Z,62.83
2022-12-12T16:11:55.715Z,63.35
2022-12-12T16:14:41.365Z,63.75
2022-12-12T16:17:20.666Z,63.56
2022-12-12T16:20:13.789Z,63.64
2022-12-12T16:22:47.198Z,63.84
2022-12-12T16:25:27.118Z,63.57
2022-12-12T16:27:59.512Z,63.75
2022-12-12T16:30:27.284Z,63.64
2022-12-12T16:32:53.875Z,63.49
2022-12-12T16:35:23.572Z,63.56
2022-12-12T16:37:52.464Z,63.81
2022-12-12T16:40:20.333Z,64.52
2022-12-12T16:43:09.315Z,64.34
2022-12-12T16:45:37.752Z,64.54
2022-12-12T16:48:18.932Z,64.27
2022-12-12T16:50:46.491Z,64.71
2022-12-12T16:53:13.244Z,64.78
2022-12-12T16:55:42.869Z,64.73
2022-12-12T16:58:09.827Z,64.70
2022-12-12T17:00:38.093Z,64.84
2022-12-12T17:03:05.004Z,64.67
2022-12-12T17:05:32.375Z,65.00
2022-12-12T17:07:58.952Z,64.54
2022-12-12T17:10:25.915Z,64.63
2022-12-12T17:12:54.159Z,64.97
2022-12-12T17:15:26.912Z,65.05
2022-12-12T17:17:54.034Z,65.16
2022-12-12T17:20:20.658Z,65.10
2022-12-12T17:22:47.326Z,65.36
2022-12-12T17:25:14.085Z,64.58
2022-12-12T17:27:41.256Z,64.79
2022-12-12T17:30:09.472Z,64.97
2022-12-12T17:32:36.098Z,64.98
2022-12-12T17:35:03.598Z,65.24
2022-12-12T17:37:30.147Z,65.18
2022-12-12T17:39:56.557Z,65.65
2022-12-12T17:42:23.068Z,65.35
2022-12-12T17:44:49.627Z,65.23
2022-12-12T17:47:16.678Z,65.23
2022-12-12T17:49:43.224Z,64.94
2022-12-12T17:52:09.610Z,64.77
2022-12-12T17:54:36.063Z,64.79
2022-12-12T17:57:02.513Z,65.04
2022-12-12T17:59:28.935Z,65.48
2022-12-12T18:01:55.394Z,65.57
2022-12-12T18:04:27.824Z,65.26
2022-12-12T18:06:54.872Z,65.23
2022-12-12T18:09:21.445Z,65.56
2022-12-12T18:11:48.267Z,65.51
2022-12-12T18:14:16.013Z,65.67
2022-12-12T18:16:44.821Z,65.78
2022-12-12T18:19:11.384Z,65.53
2022-12-12T18:24:29.373Z,65.77
2022-12-12T18:26:58.271Z,65.18
2022-12-12T18:29:25.519Z,66.21
2022-12-12T18:31:52.366Z,65.60
2022-12-12T18:34:19.514Z,65.48
2022-12-12T18:36:45.984Z,65.78
2022-12-12T18:39:12.515Z,66.28
2022-12-12T18:41:39.049Z,65.96
2022-12-12T18:44:07.473Z,66.94
2022-12-12T18:46:41.966Z,66.82
2022-12-12T18:49:10.987Z,66.82
2022-12-12T18:51:37.628Z,66.87
2022-12-12T18:54:10.928Z,66.80
2022-12-12T18:56:40.383Z,66.63
2022-12-12T18:59:07.109Z,67.48
2022-12-12T19:01:35.315Z,66.63
2022-12-12T19:04:08.977Z,67.24
2022-12-12T19:06:38.296Z,68.31
2022-12-12T19:09:07.760Z,68.27
2022-12-12T19:11:35.730Z,67.10
2022-12-12T19:14:02.653Z,67.03
2022-12-12T19:16:29.105Z,67.61
2022-12-12T19:18:55.571Z,67.46
2022-12-12T19:21:24.297Z,67.36
2022-12-12T19:23:51.810Z,66.84
2022-12-12T19:26:26.682Z,67.63
2022-12-12T19:29:08.288Z,67.14
2022-12-12T19:31:35.930Z,66.77
2022-12-12T19:34:05.347Z,66.44
2022-12-12T19:36:32.489Z,66.38
2022-12-12T19:39:00.571Z,66.96
2022-12-12T19:41:27.743Z,66.93
2022-12-12T19:43:55.132Z,67.20
2022-12-12T19:46:24.127Z,67.47
2022-12-12T19:48:58.098Z,67.49
2022-12-12T19:51:26.641Z,67.65
2022-12-12T19:53:58.088Z,67.98
2022-12-12T19:56:27.524Z,68.63
2022-12-12T19:58:55.242Z,68.27
2022-12-12T20:01:25.102Z,68.82
2022-12-12T20:03:54.919Z,68.53
2022-12-12T20:06:22.370Z,68.51
2022-12-12T20:08:49.384Z,68.55
2022-12-12T20:11:18.311Z,68.70
2022-12-12T20:13:48.955Z,68.49
2022-12-12T20:16:18.291Z,68.47
2022-12-12T20:18:47.240Z,68.33
2022-12-12T20:21:30.005Z,67.84
2022-12-12T20:24:00.335Z,68.36
2022-12-12T20:26:29.336Z,69.08
2022-12-12T20:28:59.417Z,68.23
2022-12-12T20:31:28.431Z,67.47
2022-12-12T20:33:56.635Z,68.02
2022-12-12T20:36:31.576Z,67.99
2022-12-12T20:39:00.571Z,67.45
2022-12-12T20:41:29.445Z,67.26
2022-12-12T20:43:58.316Z,66.78
2022-12-12T20:46:30.758Z,66.33
2022-12-12T20:48:59.383Z,66.32
2022-12-12T20:54:22.045Z,66.30
2022-12-12T20:56:49.402Z,66.15
2022-12-12T20:59:15.897Z,66.59
2022-12-12T21:01:42.368Z,66.92
2022-12-12T21:04:09.430Z,66.65
2022-12-12T21:06:38.717Z,66.89
2022-12-12T21:09:08.601Z,66.78
2022-12-12T21:11:36.285Z,66.82
2022-12-12T21:14:03.201Z,66.36
2022-12-12T21:16:33.390Z,65.57
2022-12-12T21:19:07.077Z,66.25
2022-12-12T21:21:33.898Z,66.03
2022-12-12T21:24:00.869Z,66.42
2022-12-12T21:26:29.847Z,66.03
2022-12-12T21:28:57.317Z,66.17
2022-12-12T21:31:27.591Z,66.37
2022-12-12T21:33:54.163Z,66.19
2022-12-12T21:36:23.192Z,67.18
2022-12-12T21:38:50.799Z,66.94
2022-12-12T21:41:19.615Z,67.93
2022-12-12T21:43:47.663Z,67.26
2022-12-12T21:46:17.155Z,66.37
2022-12-12T21:48:43.812Z,66.86
2022-12-12T21:51:14.443Z,66.76
2022-12-12T21:53:41.715Z,66.63
2022-12-12T21:56:13.003Z,66.00
2022-12-12T21:58:41.442Z,65.71
2022-12-12T22:01:11.061Z,66.10
2022-12-12T22:03:37.694Z,65.59
2022-12-12T22:06:13.414Z,66.46
2022-12-12T22:08:40.946Z,66.36
2022-12-12T22:11:08.524Z,65.88
2022-12-12T22:13:39.895Z,65.86
2022-12-12T22:16:17.407Z,65.79
2022-12-12T22:18:44.137Z,66.25
2022-12-12T22:21:15.153Z,65.59
2022-12-12T22:23:42.688Z,65.54
2022-12-12T22:26:14.075Z,65.76
2022-12-12T22:28:40.970Z,65.36
2022-12-12T22:31:07.417Z,65.60
2022-12-12T22:33:33.864Z,65.71
2022-12-12T22:36:04.743Z,65.73
2022-12-12T22:38:34.783Z,65.67
2022-12-12T22:41:06.321Z,65.85
2022-12-12T22:43:33.074Z,66.86
2022-12-12T22:46:07.260Z,66.61
2022-12-12T22:48:34.645Z,66.89
2022-12-12T22:51:15.344Z,66.02
2022-12-12T22:53:44.393Z,65.52
2022-12-12T22:56:12.052Z,65.59
2022-12-12T22:58:39.177Z,65.71
2022-12-12T23:01:17.938Z,65.30
2022-12-12T23:03:44.977Z,64.99
2022-12-12T23:06:15.906Z,64.57
2022-12-12T23:08:43.641Z,65.05
2022-12-12T23:11:13.342Z,65.56
2022-12-12T23:13:43.420Z,65.23
2022-12-12T23:16:21.082Z,65.40
2022-12-12T23:18:48.342Z,65.33
2022-12-12T23:21:18.004Z,65.38
2022-12-12T23:23:46.130Z,65.16
2022-12-12T23:26:15.370Z,65.14
2022-12-12T23:28:42.608Z,64.98
2022-12-12T23:31:12.147Z,64.49
2022-12-12T23:33:39.062Z,64.84
2022-12-12T23:36:09.184Z,65.19
2022-12-12T23:38:36.052Z,64.87
2022-12-12T23:41:10.956Z,64.90
2022-12-12T23:43:37.423Z,64.33
2022-12-12T23:46:06.502Z,64.84
2022-12-12T23:48:33.904Z,64.34
2022-12-12T23:51:00.936Z,64.68
2022-12-12T23:53:30.621Z,64.50
2022-12-12T23:56:02.313Z,64.29
2022-12-12T23:58:28.716Z,64.77
